Time;durP1;ratioP1;P1;durP2;ratioP2;P2;SDS_P1;SDS_P2;PMS_P1;PMS_P2;Temp;Humidity;BMP_temperature;BMP_pressure;BME280_temperature;BME280_humidity;BME280_pressure;Samples;Min_cycle;Max_cycle;Signal;HPM_P1;HPM_P2
2022/05/26 00:02:10;;;;;;;;;;;14.70;99.90;;;;;;8394261;28;19921;-74
2022/05/26 00:06:14;;;;;;;;;;;14.70;99.90;;;;;;8405704;28;20793;-74
2022/05/26 00:10:15;;;;;;;;;;;14.80;99.90;;;;;;8379348;28;19927;-73
2022/05/26 00:14:17;;;;;;;;;;;14.80;99.90;;;;;;8381877;28;19935;-75
2022/05/26 00:18:19;;;;;;;13.70;6.70;;;14.80;99.90;;;;;;8415419;27;20441;-74
2022/05/26 00:22:21;;;;;;;;;;;14.80;99.90;;;;;;8408617;28;20048;-74
2022/05/26 00:26:23;;;;;;;;;;;14.80;99.90;;;;;;8404053;28;20356;-74
2022/05/26 00:30:40;;;;;;;;;;;14.80;99.90;;;;;;8393707;28;19921;-74
2022/05/26 00:34:41;;;;;;;;;;;14.80;99.90;;;;;;8394853;28;19927;-74
2022/05/26 00:38:43;;;;;;;;;;;14.80;99.90;;;;;;8400240;28;19920;-73
2022/05/26 00:42:45;;;;;;;;;;;14.90;99.90;;;;;;8393662;28;19924;-73
2022/05/26 00:46:50;;;;;;;20.20;8.68;;;14.90;99.90;;;;;;8397079;28;19930;-74
2022/05/26 00:50:56;;;;;;;15.90;6.57;;;14.90;99.90;;;;;;8397800;28;20044;-73
2022/05/26 00:55:02;;;;;;;16.08;5.75;;;14.90;99.90;;;;;;8402004;28;20055;-73
2022/05/26 00:59:18;;;;;;;14.70;6.75;;;14.90;99.90;;;;;;8412580;28;20481;-74
2022/05/26 01:03:45;;;;;;;15.15;7.47;;;14.90;99.90;;;;;;8399800;28;20047;-73
2022/05/26 01:07:48;;;;;;;15.77;6.22;;;14.90;99.90;;;;;;8395470;28;20049;-74
2022/05/26 01:11:50;;;;;;;10.85;5.95;;;14.90;99.90;;;;;;8401594;28;20048;-73
2022/05/26 01:16:02;;;;;;;14.07;6.55;;;14.90;99.90;;;;;;8401863;28;20043;-73
2022/05/26 01:20:33;;;;;;;13.07;5.63;;;14.90;99.90;;;;;;8401345;28;20048;-74
2022/05/26 01:24:53;;;;;;;;;;;14.80;99.90;;;;;;8375950;28;20064;-74
2022/05/26 01:29:30;;;;;;;16.45;6.85;;;14.80;99.90;;;;;;8393134;28;19928;-73
2022/05/26 01:33:47;;;;;;;14.02;6.55;;;14.80;99.90;;;;;;8382782;28;20045;-73
2022/05/26 01:38:13;;;;;;;12.93;5.50;;;14.90;99.90;;;;;;8407235;28;20055;-74
2022/05/26 01:42:29;;;;;;;14.02;5.47;;;14.90;99.90;;;;;;8395417;28;20063;-72
2022/05/26 01:46:41;;;;;;;13.40;5.97;;;14.90;99.90;;;;;;8393822;28;20045;-73
2022/05/26 01:51:11;;;;;;;13.45;6.47;;;14.90;99.90;;;;;;8393291;28;20044;-74
2022/05/26 01:55:34;;;;;;;13.35;6.03;;;14.90;99.90;;;;;;8389957;28;20048;-73
2022/05/26 01:59:50;;;;;;;17.20;6.25;;;14.80;99.90;;;;;;8395830;28;20048;-74
2022/05/26 02:03:56;;;;;;;15.60;5.70;;;14.80;99.90;;;;;;8389186;28;20447;-73
2022/05/26 02:08:01;;;;;;;;;;;14.80;99.90;;;;;;8390818;28;20056;-74
2022/05/26 02:12:03;;;;;;;;;;;14.80;99.90;;;;;;8400031;28;20443;-74
2022/05/26 02:16:15;;;;;;;14.43;5.72;;;14.80;99.90;;;;;;8400296;28;19924;-73
2022/05/26 02:20:26;;;;;;;15.38;6.15;;;14.80;99.90;;;;;;8400493;28;20048;-73
2022/05/26 02:24:39;;;;;;;;;;;14.80;99.90;;;;;;8403508;28;19942;-74
2022/05/26 02:33:04;;;;;;;;;;;14.70;99.90;;;;;;8403896;28;20308;-73
2022/05/26 02:37:07;;;;;;;;;;;14.70;99.90;;;;;;8396600;28;19936;-73
2022/05/26 02:41:08;;;;;;;;;;;14.70;99.90;;;;;;8403825;28;19928;-73
2022/05/26 02:45:11;;;;;;;;;;;14.70;99.90;;;;;;8407679;28;19932;-74
2022/05/26 02:49:51;;;;;;;11.82;4.80;;;14.70;99.90;;;;;;8410567;28;19926;-74
2022/05/26 02:53:59;;;;;;;9.48;4.63;;;14.70;99.90;;;;;;8388139;28;20041;-74
2022/05/26 02:58:23;;;;;;;9.45;3.88;;;14.60;99.90;;;;;;8398323;28;20048;-74
2022/05/26 03:02:47;;;;;;;9.45;4.38;;;14.60;99.90;;;;;;8397970;28;20049;-73
2022/05/26 03:06:56;;;;;;;12.15;4.43;;;14.60;99.90;;;;;;8389150;28;20058;-73
2022/05/26 03:11:06;;;;;;;11.77;4.13;;;14.60;99.90;;;;;;8390491;28;20056;-74
2022/05/26 03:15:08;;;;;;;11.15;4.30;;;14.50;99.90;;;;;;8401827;28;20433;-73
2022/05/26 03:19:11;;;;;;;10.02;4.22;;;14.60;99.90;;;;;;8422643;28;20119;-74
2022/05/26 03:23:13;;;;;;;12.57;4.10;;;14.50;99.90;;;;;;8408888;28;20056;-74
2022/05/26 03:27:14;;;;;;;11.90;5.28;;;14.60;99.90;;;;;;8405782;28;20101;-73
2022/05/26 03:31:16;;;;;;;14.00;5.00;;;14.60;99.90;;;;;;8393927;28;20055;-73
2022/05/26 03:44:00;;;;;;;13.75;4.80;;;14.50;99.90;;;;;;8391501;28;20056;-73
2022/05/26 03:48:03;;;;;;;11.68;4.75;;;14.50;99.90;;;;;;8392594;28;20415;-73
2022/05/26 03:52:05;;;;;;;;;;;14.50;99.90;;;;;;8385291;28;20060;-73
2022/05/26 03:56:07;;;;;;;;;;;14.40;99.90;;;;;;8405287;28;19920;-73
2022/05/26 04:00:09;;;;;;;;;;;14.40;99.90;;;;;;8424225;28;20011;-73
2022/05/26 04:04:11;;;;;;;;;;;14.40;99.90;;;;;;8392367;28;19931;-73
2022/05/26 04:08:13;;;;;;;;;;;14.40;99.90;;;;;;8402960;28;19928;-74
2022/05/26 04:12:17;;;;;;;;;;;14.40;99.90;;;;;;8410061;28;19924;-74
2022/05/26 04:16:19;;;;;;;;;;;14.40;99.90;;;;;;8396083;28;19953;-73
2022/05/26 04:20:22;;;;;;;;;;;14.40;99.90;;;;;;8404873;28;19965;-74
2022/05/26 04:24:23;;;;;;;;;;;14.40;99.90;;;;;;8410379;28;19945;-73
2022/05/26 04:28:25;;;;;;;;;;;14.40;99.90;;;;;;8409700;28;20360;-73
2022/05/26 04:32:27;;;;;;;;;;;14.40;99.90;;;;;;8421317;28;19920;-74
2022/05/26 04:36:28;;;;;;;;;;;14.40;99.90;;;;;;8388332;28;19920;-74
2022/05/26 04:40:30;;;;;;;;;;;14.40;99.90;;;;;;8396112;28;19920;-74
2022/05/26 04:44:33;;;;;;;;;;;14.40;99.90;;;;;;8426681;27;19931;-74
2022/05/26 04:48:35;;;;;;;;;;;14.50;99.90;;;;;;8405554;28;20361;-74
2022/05/26 04:52:37;;;;;;;12.40;3.13;;;14.50;99.90;;;;;;8406442;28;19920;-74
2022/05/26 04:56:39;;;;;;;12.30;3.15;;;14.50;99.90;;;;;;8402239;28;20048;-73
2022/05/26 05:00:41;;;;;;;9.82;3.13;;;14.60;99.90;;;;;;8402035;28;20480;-74
2022/05/26 05:04:44;;;;;;;10.88;2.78;;;14.60;99.90;;;;;;8400932;28;20044;-74
2022/05/26 05:08:46;;;;;;;8.27;2.80;;;14.60;99.90;;;;;;8377057;28;20071;-74
2022/05/26 05:12:48;;;;;;;;;;;14.60;99.90;;;;;;8400300;28;20248;-74
2022/05/26 05:16:50;;;;;;;;;;;14.70;99.90;;;;;;8391591;28;19935;-74
2022/05/26 05:20:53;;;;;;;;;;;14.80;99.90;;;;;;8405987;28;19920;-74
2022/05/26 05:25:04;;;;;;;;;;;14.80;99.90;;;;;;8417463;28;20265;-74
2022/05/26 05:29:09;;;;;;;;;;;14.80;99.90;;;;;;8416417;28;19920;-74
2022/05/26 05:33:13;;;;;;;;;;;14.90;99.90;;;;;;8396547;28;20236;-74
2022/05/26 05:37:15;;;;;;;;;;;14.90;99.90;;;;;;8403579;28;19920;-74
2022/05/26 05:41:18;;;;;;;;;;;14.90;99.90;;;;;;8395146;28;19924;-74
2022/05/26 05:45:20;;;;;;;;;;;14.90;99.90;;;;;;8389709;28;19928;-74
2022/05/26 05:49:23;;;;;;;;;;;15.00;99.90;;;;;;8379512;28;19927;-74
2022/05/26 05:53:26;;;;;;;;;;;15.00;99.90;;;;;;8391775;28;19921;-74
2022/05/26 05:57:27;;;;;;;;;;;15.00;99.90;;;;;;8391750;28;19931;-74
2022/05/26 06:01:29;;;;;;;;;;;15.10;99.90;;;;;;8411056;28;19932;-74
2022/05/26 06:05:31;;;;;;;;;;;15.30;99.90;;;;;;8384538;28;19947;-74
2022/05/26 06:09:33;;;;;;;;;;;15.40;99.90;;;;;;8389519;28;19921;-74
2022/05/26 06:13:35;;;;;;;;;;;15.40;99.90;;;;;;8403986;28;20329;-74
2022/05/26 06:17:37;;;;;;;;;;;15.50;99.90;;;;;;8390294;28;19924;-73
2022/05/26 06:21:38;;;;;;;;;;;15.40;99.90;;;;;;8407881;28;19921;-73
2022/05/26 06:25:40;;;;;;;;;;;15.40;99.90;;;;;;8418968;28;19920;-73
2022/05/26 06:29:51;;;;;;;;;;;15.40;99.90;;;;;;8436366;28;19920;-74
2022/05/26 06:38:13;;;;;;;;;;;15.60;99.90;;;;;;8410624;28;19931;-75
2022/05/26 06:42:15;;;;;;;;;;;15.70;99.90;;;;;;8405192;28;19928;-74
2022/05/26 06:46:18;;;;;;;;;;;15.80;99.90;;;;;;8409014;28;19976;-74
2022/05/26 06:50:20;;;;;;;;;;;15.90;99.90;;;;;;8413834;28;20251;-74
2022/05/26 06:54:21;;;;;;;;;;;15.90;99.90;;;;;;8417248;28;19920;-74
2022/05/26 06:58:25;;;;;;;;;;;16.00;99.90;;;;;;8429851;28;19920;-74
2022/05/26 07:02:28;;;;;;;;;;;16.00;99.90;;;;;;8416993;28;20372;-74
2022/05/26 07:07:07;;;;;;;;;;;16.10;99.90;;;;;;8437116;28;19924;-74
2022/05/26 07:11:09;;;;;;;;;;;16.20;99.90;;;;;;8408850;28;19923;-74
2022/05/26 07:15:11;;;;;;;;;;;16.30;99.90;;;;;;8424289;28;19927;-73
2022/05/26 07:19:18;;;;;;;;;;;16.40;99.90;;;;;;8418559;28;20299;-74
2022/05/26 07:23:20;;;;;;;;;;;16.50;99.90;;;;;;8422556;28;19923;-73
2022/05/26 07:27:22;;;;;;;;;;;16.60;99.90;;;;;;8438467;28;19921;-73
2022/05/26 07:31:27;;;;;;;;;;;16.70;99.90;;;;;;8419729;28;19981;-73
2022/05/26 07:35:28;;;;;;;;;;;16.80;99.90;;;;;;8406482;28;20363;-74
2022/05/26 07:43:57;;;;;;;;;;;16.70;99.90;;;;;;8394872;28;19959;-74
2022/05/26 07:47:58;;;;;;;;;;;16.80;99.90;;;;;;8412951;28;19969;-73
2022/05/26 07:52:01;;;;;;;;;;;17.00;99.90;;;;;;8419443;28;20287;-74
2022/05/26 07:56:03;;;;;;;;;;;17.10;99.90;;;;;;8426904;28;20410;-74
2022/05/26 08:00:07;;;;;;;;;;;17.10;99.90;;;;;;8443260;27;19927;-74
2022/05/26 08:04:08;;;;;;;;;;;17.10;99.90;;;;;;8412292;28;19943;-74
2022/05/26 08:08:10;;;;;;;;;;;17.20;99.90;;;;;;8392188;28;20303;-74
2022/05/26 08:12:13;;;;;;;;;;;17.20;99.90;;;;;;8367844;28;20272;-74
2022/05/26 08:16:14;;;;;;;;;;;17.30;99.90;;;;;;8362510;28;19931;-73
2022/05/26 08:20:16;;;;;;;;;;;17.40;99.90;;;;;;8363290;28;20007;-74
2022/05/26 08:24:19;;;;;;;;;;;17.50;99.90;;;;;;8371873;28;20294;-75
2022/05/26 08:28:23;;;;;;;;;;;17.60;99.90;;;;;;8366730;28;20402;-75
2022/05/26 08:32:25;;;;;;;;;;;17.70;99.90;;;;;;8364190;28;19927;-74
2022/05/26 08:36:28;;;;;;;;;;;17.60;99.90;;;;;;8359485;28;19920;-74
2022/05/26 08:40:34;;;;;;;;;;;17.60;99.90;;;;;;8362399;28;19928;-74
2022/05/26 08:44:37;;;;;;;;;;;17.60;99.90;;;;;;8365680;28;19924;-75
2022/05/26 08:48:42;;;;;;;;;;;17.50;99.90;;;;;;8360958;28;19924;-74
2022/05/26 08:52:47;;;;;;;;;;;17.40;99.90;;;;;;8358727;28;19921;-74
2022/05/26 08:56:50;;;;;;;;;;;17.50;99.90;;;;;;8395291;28;19921;-75
2022/05/26 09:00:53;;;;;;;;;;;17.60;99.90;;;;;;8362720;28;20533;-74
2022/05/26 09:04:57;;;;;;;;;;;17.70;99.90;;;;;;8359619;28;19925;-75
2022/05/26 09:13:18;;;;;;;;;;;17.70;99.90;;;;;;8357569;28;19925;-74
2022/05/26 09:17:22;;;;;;;;;;;17.80;99.90;;;;;;8356358;28;19929;-74
2022/05/26 09:21:29;;;;;;;;;;;17.80;99.90;;;;;;8358108;28;19921;-74
2022/05/26 09:25:33;;;;;;;;;;;17.70;99.90;;;;;;8365383;28;20296;-75
2022/05/26 09:29:37;;;;;;;;;;;17.80;99.90;;;;;;8395943;27;19920;-74
2022/05/26 09:33:44;;;;;;;;;;;17.80;99.90;;;;;;8362874;28;20360;-74
2022/05/26 09:37:47;;;;;;;;;;;17.90;99.90;;;;;;8360888;28;20074;-74
2022/05/26 09:41:50;;;;;;;;;;;18.00;99.90;;;;;;8364015;28;19976;-74
2022/05/26 09:45:57;;;;;;;;;;;18.00;99.90;;;;;;8359041;28;19925;-74
2022/05/26 09:50:00;;;;;;;;;;;18.10;99.90;;;;;;8386304;28;19921;-75
2022/05/26 09:54:22;;;;;;;4.00;1.60;;;18.20;99.90;;;;;;8364305;28;19927;-74
2022/05/26 09:58:29;;;;;;;5.60;1.60;;;18.20;99.90;;;;;;8368368;28;20044;-74
2022/05/26 10:02:40;;;;;;;5.68;1.98;;;18.20;99.90;;;;;;8385554;28;20049;-74
2022/05/26 10:06:49;;;;;;;5.63;1.90;;;18.30;99.90;;;;;;8382862;28;20052;-74
2022/05/26 10:10:59;;;;;;;5.88;1.88;;;18.30;99.90;;;;;;8363776;28;20044;-75
2022/05/26 10:15:26;;;;;;;3.80;1.60;;;18.40;99.90;;;;;;8365968;28;20080;-75
2022/05/26 10:19:50;;;;;;;6.00;1.98;;;18.40;99.90;;;;;;8368569;28;20088;-75
2022/05/26 10:24:18;;;;;;;5.75;2.15;;;18.40;99.90;;;;;;8366954;28;20041;-74
2022/05/26 10:28:52;;;;;;;4.55;2.20;;;18.40;99.90;;;;;;8352281;28;20036;-75
2022/05/26 10:33:12;;;;;;;6.13;2.08;;;18.30;99.90;;;;;;8370816;28;20053;-74
2022/05/26 10:37:38;;;;;;;7.20;2.10;;;18.50;99.90;;;;;;8367970;28;20049;-74
2022/05/26 10:41:47;;;;;;;6.68;2.38;;;18.60;99.90;;;;;;8370412;28;20493;-74
2022/05/26 10:45:52;;;;;;;6.63;1.88;;;18.60;99.90;;;;;;8367562;28;20064;-75
2022/05/26 10:50:15;;;;;;;6.05;2.00;;;18.40;99.90;;;;;;8364638;28;20053;-74
2022/05/26 10:54:35;;;;;;;8.40;2.38;;;18.30;99.90;;;;;;8362575;28;20076;-74
2022/05/26 10:58:44;;;;;;;4.32;1.55;;;18.30;99.90;;;;;;8361290;28;20060;-74
2022/05/26 11:02:53;;;;;;;7.35;2.15;;;18.50;99.90;;;;;;8384087;28;20132;-74
2022/05/26 11:07:02;;;;;;;4.28;1.50;;;18.60;99.90;;;;;;8368076;28;20041;-74
2022/05/26 11:11:08;;;;;;;5.22;1.65;;;18.70;99.90;;;;;;8399887;27;20524;-74
2022/05/26 11:20:31;;;;;;;6.05;1.52;;;18.80;99.90;;;;;;8330904;28;20131;-75
2022/05/26 11:24:34;;;;;;;7.32;1.55;;;18.80;99.90;;;;;;8361412;28;20052;-75
2022/05/26 11:28:41;;;;;;;4.43;1.40;;;18.80;99.90;;;;;;8363260;28;20060;-74
2022/05/26 11:37:31;;;;;;;4.57;1.63;;;18.50;99.90;;;;;;8362748;28;20041;-74
2022/05/26 11:41:56;;;;;;;6.55;1.55;;;18.60;99.90;;;;;;8381752;28;20048;-74
2022/05/26 11:45:58;;;;;;;4.15;1.20;;;18.70;99.90;;;;;;8360886;28;20505;-75
2022/05/26 11:50:19;;;;;;;5.97;1.20;;;18.80;99.90;;;;;;8365685;28;20056;-74
2022/05/26 11:55:09;;;;;;;5.22;1.05;;;18.80;99.90;;;;;;8373287;28;20110;-74
2022/05/26 11:59:26;;;;;;;5.47;1.30;;;18.80;99.90;;;;;;8345859;28;20053;-75
2022/05/26 12:03:30;;;;;;;4.20;1.40;;;18.80;99.90;;;;;;8382297;28;20055;-73
2022/05/26 12:07:37;;;;;;;3.90;1.45;;;18.90;99.90;;;;;;8366396;28;20060;-74
2022/05/26 12:12:02;;;;;;;4.10;1.00;;;18.80;99.90;;;;;;8366603;28;20052;-74
2022/05/26 12:16:22;;;;;;;6.82;1.60;;;18.80;99.90;;;;;;8361166;28;20045;-74
2022/05/26 12:20:24;;;;;;;4.95;1.50;;;18.90;99.90;;;;;;8358978;28;20045;-74
2022/05/26 12:24:32;;;;;;;7.75;1.48;;;18.80;99.90;;;;;;8363625;28;20475;-74
2022/05/26 12:28:34;;;;;;;4.50;1.90;;;18.80;99.90;;;;;;8364883;28;20090;-74
2022/05/26 12:32:38;;;;;;;6.80;1.90;;;18.80;99.90;;;;;;8379326;28;20411;-74
2022/05/26 12:36:56;;;;;;;4.88;1.45;;;18.80;99.90;;;;;;8375715;28;20048;-74
2022/05/26 12:41:18;;;;;;;7.60;1.80;;;18.70;99.90;;;;;;8364474;28;20081;-74
2022/05/26 12:45:48;;;;;;;5.20;1.73;;;18.70;99.90;;;;;;8378388;28;20080;-74
2022/05/26 12:50:16;;;;;;;3.63;1.13;;;18.80;99.90;;;;;;8362135;28;20056;-74
2022/05/26 12:54:19;;;;;;;4.10;1.10;;;18.90;99.90;;;;;;8360468;28;20515;-74
2022/05/26 12:58:28;;;;;;;6.53;1.25;;;19.00;99.90;;;;;;8357478;28;20505;-75
2022/05/26 13:02:30;;;;;;;4.05;1.42;;;19.00;99.90;;;;;;8360776;28;20037;-73
2022/05/26 13:06:36;;;;;;;8.18;1.63;;;19.00;99.90;;;;;;8364852;28;20061;-74
2022/05/26 13:10:41;;;;;;;3.95;1.40;;;19.00;99.90;;;;;;8358413;28;20053;-73
2022/05/26 13:14:47;;;;;;;4.45;1.33;;;18.90;99.90;;;;;;8360068;28;20075;-74
2022/05/26 13:18:50;;;;;;;3.72;1.60;;;18.80;99.90;;;;;;8375284;28;20456;-74
2022/05/26 13:22:52;;;;;;;;;;;18.80;99.90;;;;;;8360841;28;20353;-74
2022/05/26 13:27:01;;;;;;;;;;;18.90;99.90;;;;;;8364164;28;19925;-74
2022/05/26 13:35:23;;;;;;;;;;;19.00;99.90;;;;;;8357171;28;19921;-73
2022/05/26 13:39:30;;;;;;;;;;;19.10;99.90;;;;;;8363924;28;20373;-74
2022/05/26 13:43:34;;;;;;;;;;;19.10;99.90;;;;;;8361951;28;19932;-75
2022/05/26 13:47:37;;;;;;;;;;;19.10;99.90;;;;;;8360332;28;19929;-73
2022/05/26 13:51:41;;;;;;;;;;;19.20;99.90;;;;;;8355189;28;19932;-74
2022/05/26 13:55:46;;;;;;;;;;;19.30;99.90;;;;;;8362944;28;19931;-74
2022/05/26 13:59:53;;;;;;;;;;;19.40;99.90;;;;;;8359789;28;19929;-74
2022/05/26 14:03:56;;;;;;;;;;;19.30;99.90;;;;;;8395115;28;19921;-74
2022/05/26 14:07:58;;;;;;;;;;;19.30;99.90;;;;;;8357581;28;19925;-75
2022/05/26 14:12:03;;;;;;;;;;;19.30;99.90;;;;;;8355690;28;19928;-75
2022/05/26 14:16:05;;;;;;;;;;;19.20;99.90;;;;;;8359270;28;20268;-74
2022/05/26 14:20:07;;;;;;;;;;;19.10;99.90;;;;;;8396687;28;19927;-74
2022/05/26 14:24:41;;;;;;;;;;;19.00;99.90;;;;;;8360078;28;19924;-75
2022/05/26 14:28:43;;;;;;;;;;;19.00;99.90;;;;;;8348313;28;19948;-74
2022/05/26 14:32:44;;;;;;;;;;;18.90;99.90;;;;;;8360004;28;19928;-74
2022/05/26 14:36:46;;;;;;;;;;;18.80;99.90;;;;;;8380529;28;19925;-73
2022/05/26 14:40:48;;;;;;;;;;;18.80;99.90;;;;;;8366803;28;19925;-74
2022/05/26 14:44:50;;;;;;;;;;;18.80;99.90;;;;;;8365922;28;20392;-74
2022/05/26 14:48:51;;;;;;;;;;;18.80;99.90;;;;;;8373745;28;19923;-73
2022/05/26 14:52:53;;;;;;;;;;;18.80;99.90;;;;;;8368204;28;19935;-74
2022/05/26 14:56:55;;;;;;;;;;;18.80;99.90;;;;;;8368114;28;20007;-74
2022/05/26 15:00:57;;;;;;;;;;;18.90;99.90;;;;;;8364472;28;19921;-74
2022/05/26 15:04:59;;;;;;;;;;;18.90;99.90;;;;;;8362958;28;20016;-74
2022/05/26 15:09:19;;;;;;;;;;;19.00;99.90;;;;;;8364644;28;19925;-74
2022/05/26 15:13:22;;;;;;;;;;;19.00;99.90;;;;;;8364944;28;19921;-74
2022/05/26 15:17:24;;;;;;;;;;;18.90;99.90;;;;;;8371132;28;19921;-74
2022/05/26 15:21:31;;;;;;;;;;;18.90;99.90;;;;;;8363899;28;20015;-74
2022/05/26 15:25:33;;;;;;;;;;;19.00;99.90;;;;;;8377382;28;19928;-74
2022/05/26 15:29:36;;;;;;;;;;;18.90;99.90;;;;;;8376221;28;20284;-74
2022/05/26 15:33:38;;;;;;;;;;;19.00;99.90;;;;;;8359374;28;20363;-74
2022/05/26 15:38:00;;;;;;;;;;;19.00;99.90;;;;;;8365226;28;19928;-74
2022/05/26 15:42:02;;;;;;;;;;;19.10;99.90;;;;;;8368066;28;19932;-74
2022/05/26 15:46:06;;;;;;;;;;;19.30;99.90;;;;;;8361126;28;19970;-74
2022/05/26 15:50:18;;;;;;;;;;;19.50;99.90;;;;;;8366951;28;19966;-73
2022/05/26 15:54:22;;;;;;;;;;;19.60;99.90;;;;;;8364125;28;19931;-74
2022/05/26 15:58:25;;;;;;;;;;;19.50;99.90;;;;;;8363461;28;19920;-74
2022/05/26 16:02:27;;;;;;;;;;;19.30;99.90;;;;;;8366365;28;19931;-73
2022/05/26 16:06:29;;;;;;;;;;;19.10;99.90;;;;;;8363615;28;19921;-73
2022/05/26 16:10:30;;;;;;;;;;;18.90;99.90;;;;;;8366291;28;20364;-73
2022/05/26 16:14:32;;;;;;;;;;;18.70;99.90;;;;;;8361110;28;20168;-74
2022/05/26 16:18:34;;;;;;;;;;;18.80;99.90;;;;;;8359112;28;19924;-74
2022/05/26 16:22:37;;;;;;;;;;;18.80;99.90;;;;;;8362627;28;20387;-73
2022/05/26 16:26:38;;;;;;;;;;;18.70;99.90;;;;;;8367863;28;20309;-75
2022/05/26 16:30:53;;;;;;;;;;;18.60;99.90;;;;;;8359039;28;19928;-74
2022/05/26 16:39:19;;;;;;;;;;;18.60;99.90;;;;;;8365212;28;19933;-73
2022/05/26 16:43:21;;;;;;;;;;;18.70;99.90;;;;;;8361195;28;20280;-74
2022/05/26 16:47:22;;;;;;;;;;;18.70;99.90;;;;;;8381004;28;20007;-73
2022/05/26 16:51:24;;;;;;;;;;;18.70;99.90;;;;;;8367468;28;19925;-74
2022/05/26 16:55:27;;;;;;;;;;;18.50;99.90;;;;;;8363463;28;19928;-74
2022/05/26 16:59:29;;;;;;;;;;;18.40;99.90;;;;;;8390565;27;19921;-74
2022/05/26 17:03:30;;;;;;;;;;;18.40;99.90;;;;;;8357352;28;19928;-74
2022/05/26 17:07:33;;;;;;;;;;;18.30;99.90;;;;;;8359852;28;20018;-74
2022/05/26 17:11:34;;;;;;;;;;;18.30;99.90;;;;;;8358570;28;20034;-73
2022/05/26 17:24:18;;;;;;;;;;;18.20;99.90;;;;;;8360155;28;19921;-73
2022/05/26 17:28:20;;;;;;;;;;;18.20;99.90;;;;;;8355355;28;24337;-73
2022/05/26 17:32:22;;;;;;;;;;;18.20;99.90;;;;;;8380456;28;19959;-74
2022/05/26 17:36:24;;;;;;;;;;;18.20;99.90;;;;;;8350772;28;19928;-73
2022/05/26 17:40:25;;;;;;;;;;;18.20;99.90;;;;;;8379052;28;20152;-73
2022/05/26 17:44:29;;;;;;;;;;;18.10;99.90;;;;;;8368644;28;19928;-74
2022/05/26 17:48:30;;;;;;;;;;;18.10;99.90;;;;;;8352442;28;19927;-74
2022/05/26 17:52:32;;;;;;;;;;;18.00;99.90;;;;;;8357890;28;20023;-73
2022/05/26 17:56:33;;;;;;;;;;;18.00;99.90;;;;;;8354074;28;19924;-73
2022/05/26 18:04:55;;;;;;;;;;;17.90;99.90;;;;;;8351643;28;20277;-74
2022/05/26 18:08:58;;;;;;;;;;;17.80;99.90;;;;;;8346045;28;19925;-73
2022/05/26 18:13:01;;;;;;;;;;;17.80;99.90;;;;;;8355894;28;19978;-73
2022/05/26 18:17:05;;;;;;;;;;;17.60;99.90;;;;;;8353793;28;20237;-74
2022/05/26 18:21:11;;;;;;;;;;;17.60;99.90;;;;;;8351255;28;19960;-74
2022/05/26 18:25:14;;;;;;;;;;;17.50;99.90;;;;;;8368994;28;20319;-73
2022/05/26 18:29:16;;;;;;;;;;;17.50;99.90;;;;;;8352235;28;19929;-73
2022/05/26 18:33:23;;;;;;;;;;;17.40;99.90;;;;;;8351299;28;19929;-73
2022/05/26 18:37:29;;;;;;;;;;;17.50;99.90;;;;;;8357645;28;19931;-73
2022/05/26 18:41:31;;;;;;;;;;;17.50;99.90;;;;;;8368891;28;19929;-73
2022/05/26 18:45:33;;;;;;;;;;;17.50;99.90;;;;;;8350888;28;19951;-73
2022/05/26 18:54:31;;;;;;;;;;;17.40;99.90;;;;;;8348205;28;20527;-73
2022/05/26 18:58:36;;;;;;;;;;;17.30;99.90;;;;;;8352924;28;20434;-72
2022/05/26 19:02:39;;;;;;;;;;;17.30;99.90;;;;;;8350141;28;19932;-73
2022/05/26 19:07:01;;;;;;;;;;;17.20;99.90;;;;;;8345389;28;19960;-73
2022/05/26 19:11:05;;;;;;;;;;;17.20;99.90;;;;;;8353479;28;20010;-72
2022/05/26 19:15:07;;;;;;;;;;;17.20;99.90;;;;;;8347901;28;19940;-73
2022/05/26 19:19:10;;;;;;;;;;;17.20;99.90;;;;;;8351073;28;19928;-73
2022/05/26 19:23:12;;;;;;;;;;;17.10;99.90;;;;;;8365493;28;20292;-73
2022/05/26 19:27:15;;;;;;;;;;;17.10;99.90;;;;;;8349709;28;19935;-74
2022/05/26 19:31:20;;;;;;;;;;;17.10;99.90;;;;;;8351700;28;19977;-74
2022/05/26 19:35:23;;;;;;;;;;;17.00;99.90;;;;;;8346982;28;24219;-73
2022/05/26 19:39:24;;;;;;;;;;;17.00;99.90;;;;;;8349791;28;19936;-73
2022/05/26 19:43:27;;;;;;;;;;;17.00;99.90;;;;;;8351053;28;19932;-73
2022/05/26 19:47:29;;;;;;;;;;;17.00;99.90;;;;;;8351924;28;19947;-73
2022/05/26 19:51:31;;;;;;;;;;;17.00;99.90;;;;;;8358919;28;22877;-73
2022/05/26 19:55:32;;;;;;;;;;;16.90;99.90;;;;;;8352451;28;20425;-73
2022/05/26 19:59:35;;;;;;;;;;;16.90;99.90;;;;;;8351792;28;21565;-74
2022/05/26 20:03:36;;;;;;;;;;;16.90;99.90;;;;;;8353727;28;19928;-73
2022/05/26 20:07:39;;;;;;;;;;;16.80;99.90;;;;;;8354046;28;19920;-74
2022/05/26 20:11:40;;;;;;;;;;;16.80;99.90;;;;;;8354048;28;19920;-75
2022/05/26 20:15:44;;;;;;;;;;;16.80;99.90;;;;;;8352934;28;19932;-73
2022/05/26 20:19:48;;;;;;;;;;;16.70;99.90;;;;;;8356035;28;19924;-74
2022/05/26 20:23:50;;;;;;;;;;;16.70;99.90;;;;;;8351485;28;19928;-73
2022/05/26 20:32:12;;;;;;;;;;;16.70;99.90;;;;;;8352888;28;20839;-73
2022/05/26 20:36:18;;;;;;;;;;;16.60;99.90;;;;;;8353303;28;19928;-73
2022/05/26 20:40:20;;;;;;;;;;;16.60;99.90;;;;;;8355930;28;19935;-73
2022/05/26 20:44:21;;;;;;;;;;;16.60;99.90;;;;;;8351940;28;19936;-73
2022/05/26 20:48:23;;;;;;;;;;;16.50;99.90;;;;;;8350773;28;19921;-73
2022/05/26 20:52:25;;;;;;;;;;;16.50;99.90;;;;;;8350440;28;19971;-73
2022/05/26 20:56:29;;;;;;;;;;;16.40;99.90;;;;;;8368484;28;20368;-74
2022/05/26 21:00:30;;;;;;;;;;;16.40;99.90;;;;;;8356290;28;20131;-73
2022/05/26 21:04:32;;;;;;;;;;;16.40;99.90;;;;;;8393614;27;19928;-74
2022/05/26 21:08:34;;;;;;;;;;;16.40;99.90;;;;;;8368910;28;20391;-74
2022/05/26 21:12:36;;;;;;;;;;;16.30;99.90;;;;;;8366416;28;19928;-73
2022/05/26 21:16:38;;;;;;;;;;;16.30;99.90;;;;;;8383535;28;19951;-73
2022/05/26 21:20:39;;;;;;;;;;;16.30;99.90;;;;;;8372353;28;19932;-73
2022/05/26 21:24:41;;;;;;;;;;;16.30;99.90;;;;;;8365156;28;19931;-73
2022/05/26 21:28:47;;;;;;;;;;;16.30;99.90;;;;;;8369604;28;19982;-74
2022/05/26 21:32:49;;;;;;;;;;;16.20;99.90;;;;;;8365936;28;19940;-73
2022/05/26 21:36:51;;;;;;;;;;;16.20;99.90;;;;;;8370315;28;19928;-73
2022/05/26 21:40:55;;;;;;;;;;;16.20;99.90;;;;;;8373588;28;19951;-73
2022/05/26 21:44:57;;;;;;;;;;;16.10;99.90;;;;;;8368658;28;19928;-73
2022/05/26 21:48:59;;;;;;;;;;;16.10;99.90;;;;;;8363017;28;20019;-73
2022/05/26 21:53:01;;;;;;;;;;;16.00;99.90;;;;;;8368859;28;19975;-73
2022/05/26 21:57:02;;;;;;;;;;;16.00;99.90;;;;;;8385232;28;19924;-74
2022/05/26 22:01:04;;;;;;;;;;;16.00;99.90;;;;;;8362410;28;19920;-74
2022/05/26 22:14:08;;;;;;;;;;;15.90;99.90;;;;;;8366671;28;19936;-73
2022/05/26 22:18:10;;;;;;;;;;;15.90;99.90;;;;;;8371266;28;19928;-73
2022/05/26 22:22:32;;;;;;;;;;;15.90;99.90;;;;;;8381479;28;20287;-74
2022/05/26 22:26:34;;;;;;;;;;;15.90;99.90;;;;;;8365707;28;19920;-74
2022/05/26 22:30:36;;;;;;;;;;;15.80;99.90;;;;;;8370498;28;19928;-74
2022/05/26 22:39:01;;;;;;;;;;;15.90;99.90;;;;;;8373705;28;20021;-74
2022/05/26 22:43:02;;;;;;;;;;;15.80;99.90;;;;;;8367367;28;19936;-73
2022/05/26 22:47:04;;;;;;;;;;;15.80;99.90;;;;;;8363485;28;19978;-73
2022/05/26 22:51:06;;;;;;;;;;;15.80;99.90;;;;;;8361897;28;19931;-73
2022/05/26 22:55:11;;;;;;;;;;;15.90;99.90;;;;;;8386738;28;19963;-73
2022/05/26 22:59:12;;;;;;;;;;;15.90;99.90;;;;;;8376292;28;19920;-73
2022/05/26 23:03:14;;;;;;;;;;;15.90;99.90;;;;;;8367423;28;19943;-73
2022/05/26 23:07:16;;;;;;;;;;;15.80;99.90;;;;;;8369813;28;19924;-73
2022/05/26 23:11:26;;;;;;;;;;;15.90;99.90;;;;;;8375854;28;19972;-74
2022/05/26 23:15:27;;;;;;;;;;;15.90;99.90;;;;;;8372552;28;19928;-74
2022/05/26 23:19:29;;;;;;;;;;;15.90;99.90;;;;;;8377731;28;20359;-74
2022/05/26 23:23:31;;;;;;;;;;;15.90;99.90;;;;;;8372295;28;19929;-74
2022/05/26 23:27:32;;;;;;;;;;;15.90;99.90;;;;;;8375151;28;19921;-74
2022/05/26 23:31:34;;;;;;;;;;;15.90;99.90;;;;;;8386500;28;19925;-73
2022/05/26 23:35:36;;;;;;;;;;;15.90;99.90;;;;;;8371565;28;20067;-73
2022/05/26 23:39:37;;;;;;;;;;;15.90;99.90;;;;;;8372667;28;19940;-74
2022/05/26 23:43:39;;;;;;;;;;;15.90;99.90;;;;;;8373263;28;19928;-74
2022/05/26 23:47:41;;;;;;;;;;;15.80;99.90;;;;;;8388219;28;20448;-73
2022/05/26 23:51:42;;;;;;;;;;;15.70;99.90;;;;;;8365948;28;19929;-73
